createdAt,value
2022-09-03T00:03:51.860Z,18.75
2022-09-03T00:09:14.041Z,20.45
2022-09-03T00:14:22.395Z,17.67
2022-09-03T00:19:36.323Z,20.83
2022-09-03T00:24:42.204Z,14.90
2022-09-03T00:30:01.211Z,9.77
2022-09-03T00:35:06.715Z,10.82
2022-09-03T00:40:23.314Z,10.88
2022-09-03T00:45:51.744Z,17.08
2022-09-03T00:51:25.921Z,21.13
2022-09-03T00:56:47.468Z,16.33
2022-09-03T01:02:03.819Z,14.90
2022-09-03T01:07:46.289Z,16.60
2022-09-03T01:13:04.369Z,14.95
2022-09-03T01:18:12.663Z,11.63
2022-09-03T01:23:43.382Z,20.60
2022-09-03T01:28:55.629Z,11.52
2022-09-03T01:34:22.897Z,10.05
2022-09-03T01:39:44.710Z,10.75
2022-09-03T01:45:24.211Z,14.75
2022-09-03T01:50:39.660Z,12.98
2022-09-03T01:55:44.526Z,12.20
2022-09-03T02:00:51.959Z,11.30
2022-09-03T02:05:54.282Z,9.60
2022-09-03T02:11:02.168Z,8.45
2022-09-03T02:16:13.262Z,10.20
2022-09-03T02:21:20.142Z,8.65
2022-09-03T02:26:25.611Z,10.70
2022-09-03T02:31:29.019Z,7.05
2022-09-03T02:36:35.570Z,5.53
2022-09-03T02:41:38.293Z,5.03
2022-09-03T02:47:10.827Z,5.82
2022-09-03T02:52:13.088Z,5.88
2022-09-03T02:57:23.074Z,7.35
2022-09-03T03:02:30.157Z,5.95
2022-09-03T03:07:35.991Z,6.15
2022-09-03T03:12:38.614Z,7.13
2022-09-03T03:17:40.825Z,9.50
2022-09-03T03:22:43.049Z,8.43
2022-09-03T03:27:45.267Z,9.27
2022-09-03T03:32:48.048Z,7.10
2022-09-03T03:37:50.684Z,7.22
2022-09-03T03:42:53.769Z,6.63
2022-09-03T03:47:59.561Z,6.47
2022-09-03T03:53:02.646Z,8.48
2022-09-03T03:58:04.830Z,8.27
2022-09-03T04:03:07.375Z,8.57
2022-09-03T04:08:09.951Z,5.93
2022-09-03T04:13:12.162Z,7.82
2022-09-03T04:18:14.451Z,8.07
2022-09-03T04:23:16.604Z,7.25
2022-09-03T04:28:19.992Z,7.82
2022-09-03T04:33:25.892Z,11.73
2022-09-03T04:38:29.870Z,7.72
2022-09-03T04:43:33.966Z,9.75
2022-09-03T04:48:37.857Z,10.18
2022-09-03T04:53:42.419Z,9.15
2022-09-03T04:58:46.755Z,8.20
2022-09-03T05:03:54.009Z,8.00
2022-09-03T05:08:56.730Z,6.38
2022-09-03T05:14:01.117Z,7.72
2022-09-03T05:19:03.812Z,7.22
2022-09-03T05:24:06.241Z,6.97
2022-09-03T05:29:09.104Z,9.93
2022-09-03T05:34:16.697Z,10.05
2022-09-03T05:44:28.699Z,10.38
2022-09-03T05:49:32.760Z,11.32
2022-09-03T05:54:35.000Z,10.23
2022-09-03T05:59:37.209Z,12.25
2022-09-03T06:04:39.691Z,10.68
2022-09-03T06:09:42.101Z,9.30
2022-09-03T06:14:45.011Z,10.57
2022-09-03T06:19:48.540Z,9.80
2022-09-03T06:24:50.900Z,10.25
2022-09-03T06:29:53.232Z,10.73
2022-09-03T06:34:55.752Z,9.40
2022-09-03T06:39:57.961Z,10.80
2022-09-03T06:45:00.220Z,7.43
2022-09-03T06:50:02.833Z,6.85
2022-09-03T06:55:05.597Z,6.80
2022-09-03T07:00:08.575Z,6.30
2022-09-03T07:05:10.755Z,6.40
2022-09-03T07:10:16.273Z,6.10
2022-09-03T07:15:19.766Z,3.80
2022-09-03T07:20:22.438Z,2.78
2022-09-03T07:25:26.448Z,2.47
2022-09-03T07:30:28.654Z,2.28
2022-09-03T07:35:30.982Z,2.90
2022-09-03T07:40:33.357Z,2.40
2022-09-03T07:45:35.624Z,2.00
2022-09-03T07:50:40.263Z,2.15
2022-09-03T07:55:43.530Z,2.17
2022-09-03T08:00:45.745Z,1.52
2022-09-03T08:05:47.947Z,1.38
2022-09-03T08:10:50.142Z,2.88
2022-09-03T08:15:56.778Z,0.90
2022-09-03T08:21:00.233Z,1.67
2022-09-03T08:26:05.878Z,0.95
2022-09-03T08:31:22.766Z,0.85
2022-09-03T08:36:30.393Z,1.20
2022-09-03T08:41:50.909Z,1.05
2022-09-03T08:47:13.899Z,1.35
2022-09-03T08:52:55.993Z,1.02
2022-09-03T08:58:10.988Z,0.70
2022-09-03T09:03:16.752Z,0.80
2022-09-03T09:08:28.289Z,1.27
2022-09-03T09:13:50.025Z,0.77
2022-09-03T09:19:17.844Z,0.65
2022-09-03T09:24:35.088Z,1.20
2022-09-03T09:29:39.337Z,0.95
2022-09-03T09:34:41.668Z,0.70
2022-09-03T09:40:01.173Z,0.80
2022-09-03T09:45:11.535Z,1.00
2022-09-03T09:50:26.350Z,0.63
2022-09-03T09:55:29.308Z,1.00
2022-09-03T10:00:43.771Z,1.05
2022-09-03T10:06:28.899Z,1.40
2022-09-03T10:11:33.803Z,0.40
2022-09-03T10:16:40.935Z,0.80
2022-09-03T10:22:14.550Z,1.35
2022-09-03T10:27:22.371Z,0.80
2022-09-03T10:32:41.832Z,1.13
2022-09-03T10:38:08.578Z,0.95
2022-09-03T10:43:59.040Z,0.90
2022-09-03T10:49:09.000Z,1.27
2022-09-03T10:54:36.077Z,1.80
2022-09-03T11:00:06.342Z,0.90
2022-09-03T11:05:36.838Z,1.17
2022-09-03T11:11:17.837Z,0.77
2022-09-03T11:16:36.062Z,0.55
2022-09-03T11:21:44.214Z,1.83
2022-09-03T11:26:58.552Z,1.52
2022-09-03T11:32:16.116Z,0.77
2022-09-03T11:37:24.131Z,0.40
2022-09-03T11:42:39.935Z,0.77
2022-09-03T11:47:44.711Z,0.82
2022-09-03T11:52:48.479Z,0.93
2022-09-03T11:57:56.325Z,1.10
2022-09-03T12:03:03.553Z,0.80
2022-09-03T12:08:27.519Z,0.63
2022-09-03T12:14:05.068Z,0.98
2022-09-03T12:19:36.590Z,0.63
2022-09-03T12:24:39.941Z,0.70
2022-09-03T12:30:05.369Z,0.77
2022-09-03T12:46:20.423Z,0.50
2022-09-03T12:51:51.270Z,0.65
2022-09-03T12:56:58.603Z,0.57
2022-09-03T13:02:21.562Z,1.65
2022-09-03T13:07:51.786Z,0.82
2022-09-03T13:13:01.465Z,0.88
2022-09-03T13:18:05.043Z,0.90
2022-09-03T13:23:34.566Z,0.55
2022-09-03T13:34:09.690Z,0.50
2022-09-03T13:39:28.992Z,0.95
2022-09-03T13:44:56.759Z,0.70
2022-09-03T13:50:22.177Z,0.77
2022-09-03T13:55:31.843Z,1.13
2022-09-03T14:01:07.134Z,0.43
2022-09-03T14:06:41.586Z,0.60
2022-09-03T14:11:49.800Z,1.00
2022-09-03T14:16:58.592Z,0.57
2022-09-03T14:22:26.139Z,0.93
2022-09-03T14:27:33.041Z,0.60
2022-09-03T14:32:42.358Z,0.80
2022-09-03T14:37:57.020Z,1.60
2022-09-03T14:43:14.467Z,0.75
2022-09-03T14:48:35.596Z,0.77
2022-09-03T14:54:12.010Z,0.90
2022-09-03T14:59:28.979Z,1.23
2022-09-03T15:05:20.146Z,1.73
2022-09-03T15:10:53.256Z,0.70
2022-09-03T15:16:35.784Z,0.80
2022-09-03T15:22:14.115Z,1.17
2022-09-03T15:27:54.109Z,0.73
2022-09-03T15:32:56.282Z,0.57
2022-09-03T15:38:24.621Z,0.95
2022-09-03T15:43:33.481Z,0.88
2022-09-03T15:48:53.562Z,0.73
2022-09-03T15:54:13.683Z,1.00
2022-09-03T15:59:42.834Z,1.08
2022-09-03T16:05:06.174Z,0.82
2022-09-03T16:10:25.441Z,0.73
2022-09-03T16:21:45.871Z,1.65
2022-09-03T16:27:10.043Z,0.65
2022-09-03T16:32:42.924Z,1.23
2022-09-03T16:38:06.253Z,0.80
2022-09-03T16:43:58.271Z,1.08
2022-09-03T16:49:26.201Z,1.27
2022-09-03T16:55:49.554Z,1.38
2022-09-03T17:01:30.506Z,1.00
2022-09-03T17:07:21.110Z,0.90
2022-09-03T17:13:00.018Z,0.93
2022-09-03T17:24:16.789Z,1.13
2022-09-03T17:29:53.164Z,1.40
2022-09-03T17:35:34.880Z,4.10
2022-09-03T17:41:10.397Z,1.08
2022-09-03T17:46:50.736Z,1.00
2022-09-03T17:52:33.076Z,0.85
2022-09-03T17:58:07.855Z,1.85
2022-09-03T18:09:33.644Z,1.02
2022-09-03T18:14:59.915Z,0.90
2022-09-03T18:20:26.128Z,1.30
2022-09-03T18:25:51.736Z,1.27
2022-09-03T18:31:12.606Z,1.15
2022-09-03T18:36:35.576Z,1.90
2022-09-03T18:42:36.803Z,1.20
2022-09-03T18:48:30.137Z,1.13
2022-09-03T18:54:15.499Z,1.83
2022-09-03T19:00:29.102Z,1.30
2022-09-03T19:05:55.316Z,1.10
2022-09-03T19:11:33.745Z,1.55
2022-09-03T19:17:01.438Z,1.25
2022-09-03T19:22:31.010Z,1.05
2022-09-03T19:28:01.032Z,1.20
2022-09-03T19:33:27.894Z,1.38
2022-09-03T19:39:03.410Z,1.00
2022-09-03T19:44:50.359Z,1.38
2022-09-03T19:50:32.944Z,1.02
2022-09-03T20:01:55.485Z,1.02
2022-09-03T20:07:27.059Z,1.17
2022-09-03T20:12:35.649Z,1.60
2022-09-03T20:17:47.195Z,2.60
2022-09-03T20:23:20.804Z,2.58
2022-09-03T20:28:36.975Z,1.05
2022-09-03T20:34:04.733Z,1.73
2022-09-03T20:39:12.545Z,1.30
2022-09-03T20:45:07.150Z,1.00
2022-09-03T20:50:39.688Z,1.20
2022-09-03T20:55:51.755Z,1.17
2022-09-03T21:01:05.894Z,1.73
2022-09-03T21:06:42.671Z,1.90
2022-09-03T21:12:17.940Z,1.20
2022-09-03T21:17:46.303Z,1.50
2022-09-03T21:23:22.919Z,1.35
2022-09-03T21:29:02.728Z,1.08
2022-09-03T21:34:23.088Z,1.38
2022-09-03T21:39:35.799Z,2.35
2022-09-03T21:44:48.725Z,2.03
2022-09-03T21:50:16.767Z,1.40
2022-09-03T21:55:36.264Z,2.55
2022-09-03T22:06:01.542Z,1.35
2022-09-03T22:11:21.863Z,1.50
2022-09-03T22:16:43.909Z,1.55
2022-09-03T22:22:01.318Z,1.50
2022-09-03T22:27:38.201Z,1.70
2022-09-03T22:33:57.831Z,2.25
2022-09-03T22:39:43.612Z,1.80
2022-09-03T22:50:26.446Z,1.70
2022-09-03T22:56:04.806Z,1.83
2022-09-03T23:01:54.457Z,2.00
2022-09-03T23:07:27.963Z,2.00
2022-09-03T23:12:56.812Z,3.08
2022-09-03T23:18:19.061Z,1.70
2022-09-03T23:36:00.239Z,1.38
2022-09-03T23:42:08.873Z,2.22
2022-09-03T23:47:34.712Z,2.35
2022-09-03T23:52:37.519Z,1.75
2022-09-03T23:57:59.217Z,2.90
